sensor_id;sensor_type;location;lat;lon;timestamp;pressure;altitude;pressure_sealevel;temperature;humidity
71805;BME280;59654;52.216;5.616;2023-06-22T00:00:28;101741.31;;;16.58;88.59
71805;BME280;59654;52.216;5.616;2023-06-22T00:00:59;101744.09;;;16.56;88.43
71805;BME280;59654;52.216;5.616;2023-06-22T00:01:31;101744.16;;;16.54;88.34
71805;BME280;59654;52.216;5.616;2023-06-22T00:02:02;101748.66;;;16.54;88.69
71805;BME280;59654;52.216;5.616;2023-06-22T00:02:33;101745.09;;;16.53;88.69
71805;BME280;59654;52.216;5.616;2023-06-22T00:03:04;101745.97;;;16.54;88.89
71805;BME280;59654;52.216;5.616;2023-06-22T00:03:35;101747.78;;;16.53;89.02
71805;BME280;59654;52.216;5.616;2023-06-22T00:04:05;101750.56;;;16.52;88.84
71805;BME280;59654;52.216;5.616;2023-06-22T00:04:36;101746.13;;;16.51;88.74
71805;BME280;59654;52.216;5.616;2023-06-22T00:05:08;101745.28;;;16.49;88.87
71805;BME280;59654;52.216;5.616;2023-06-22T00:05:39;101751.56;;;16.49;89.24
71805;BME280;59654;52.216;5.616;2023-06-22T00:06:09;101743.56;;;16.48;89.50
71805;BME280;59654;52.216;5.616;2023-06-22T00:06:40;101740.94;;;16.46;89.56
71805;BME280;59654;52.216;5.616;2023-06-22T00:07:11;101742.84;;;16.44;89.71
71805;BME280;59654;52.216;5.616;2023-06-22T00:07:42;101738.41;;;16.43;89.82
71805;BME280;59654;52.216;5.616;2023-06-22T00:08:14;101733.00;;;16.43;89.74
71805;BME280;59654;52.216;5.616;2023-06-22T00:08:46;101734.84;;;16.43;89.57
71805;BME280;59654;52.216;5.616;2023-06-22T00:09:17;101734.84;;;16.43;89.54
71805;BME280;59654;52.216;5.616;2023-06-22T00:09:48;101730.41;;;16.42;89.72
71805;BME280;59654;52.216;5.616;2023-06-22T00:10:18;101737.59;;;16.41;89.45
71805;BME280;59654;52.216;5.616;2023-06-22T00:10:56;101723.34;;;16.39;89.63
71805;BME280;59654;52.216;5.616;2023-06-22T00:11:26;101735.84;;;16.40;89.58
71805;BME280;59654;52.216;5.616;2023-06-22T00:11:58;101731.34;;;16.41;89.69
71805;BME280;59654;52.216;5.616;2023-06-22T00:12:28;101733.22;;;16.39;89.58
71805;BME280;59654;52.216;5.616;2023-06-22T00:12:59;101731.34;;;16.41;89.35
71805;BME280;59654;52.216;5.616;2023-06-22T00:13:30;101734.91;;;16.41;88.76
71805;BME280;59654;52.216;5.616;2023-06-22T00:14:01;101737.53;;;16.43;88.92
71805;BME280;59654;52.216;5.616;2023-06-22T00:14:31;101741.09;;;16.43;88.61
71805;BME280;59654;52.216;5.616;2023-06-22T00:15:02;101744.66;;;16.44;88.47
71805;BME280;59654;52.216;5.616;2023-06-22T00:15:34;101732.94;;;16.45;88.47
71805;BME280;59654;52.216;5.616;2023-06-22T00:16:05;101738.31;;;16.45;88.22
71805;BME280;59654;52.216;5.616;2023-06-22T00:16:36;101745.53;;;16.44;88.28
71805;BME280;59654;52.216;5.616;2023-06-22T00:17:13;101734.75;;;16.44;88.15
71805;BME280;59654;52.216;5.616;2023-06-22T00:17:45;101735.72;;;16.43;88.21
71805;BME280;59654;52.216;5.616;2023-06-22T00:18:15;101738.47;;;16.42;87.92
71805;BME280;59654;52.216;5.616;2023-06-22T00:18:46;101730.41;;;16.42;88.23
71805;BME280;59654;52.216;5.616;2023-06-22T00:19:17;101732.28;;;16.40;88.13
71805;BME280;59654;52.216;5.616;2023-06-22T00:19:49;101735.03;;;16.38;88.46
71805;BME280;59654;52.216;5.616;2023-06-22T00:20:23;101734.16;;;16.38;88.62
71805;BME280;59654;52.216;5.616;2023-06-22T00:20:59;101734.25;;;16.36;89.00
71805;BME280;59654;52.216;5.616;2023-06-22T00:21:30;101734.31;;;16.35;88.76
71805;BME280;59654;52.216;5.616;2023-06-22T00:22:01;101740.66;;;16.34;88.70
71805;BME280;59654;52.216;5.616;2023-06-22T00:22:33;101741.53;;;16.34;88.78
71805;BME280;59654;52.216;5.616;2023-06-22T00:23:08;101736.13;;;16.34;89.02
71805;BME280;59654;52.216;5.616;2023-06-22T00:23:39;101740.66;;;16.34;89.21
71805;BME280;59654;52.216;5.616;2023-06-22T00:24:11;101739.78;;;16.33;89.30
71805;BME280;59654;52.216;5.616;2023-06-22T00:24:42;101729.88;;;16.34;89.33
71805;BME280;59654;52.216;5.616;2023-06-22T00:25:14;101729.88;;;16.34;89.23
71805;BME280;59654;52.216;5.616;2023-06-22T00:25:44;101730.75;;;16.34;89.15
71805;BME280;59654;52.216;5.616;2023-06-22T00:26:16;101735.25;;;16.34;88.90
71805;BME280;59654;52.216;5.616;2023-06-22T00:26:48;101737.00;;;16.35;88.58
71805;BME280;59654;52.216;5.616;2023-06-22T00:27:20;101731.69;;;16.33;88.48
71805;BME280;59654;52.216;5.616;2023-06-22T00:27:51;101737.06;;;16.33;88.54
71805;BME280;59654;52.216;5.616;2023-06-22T00:28:24;101729.94;;;16.32;88.36
71805;BME280;59654;52.216;5.616;2023-06-22T00:28:55;101736.31;;;16.31;88.54
71805;BME280;59654;52.216;5.616;2023-06-22T00:29:27;101730.94;;;16.31;88.30
71805;BME280;59654;52.216;5.616;2023-06-22T00:30:00;101735.50;;;16.29;87.89
71805;BME280;59654;52.216;5.616;2023-06-22T00:30:32;101738.25;;;16.28;88.55
71805;BME280;59654;52.216;5.616;2023-06-22T00:31:04;101736.53;;;16.27;88.74
71805;BME280;59654;52.216;5.616;2023-06-22T00:31:35;101734.78;;;16.26;88.59
71805;BME280;59654;52.216;5.616;2023-06-22T00:32:06;101730.25;;;16.26;88.73
71805;BME280;59654;52.216;5.616;2023-06-22T00:32:36;101730.34;;;16.25;88.96
71805;BME280;59654;52.216;5.616;2023-06-22T00:33:07;101734.84;;;16.24;88.92
71805;BME280;59654;52.216;5.616;2023-06-22T00:33:38;101727.72;;;16.23;88.83
71805;BME280;59654;52.216;5.616;2023-06-22T00:34:09;101729.53;;;16.22;88.91
71805;BME280;59654;52.216;5.616;2023-06-22T00:34:40;101721.53;;;16.21;89.13
71805;BME280;59654;52.216;5.616;2023-06-22T00:35:14;101728.88;;;16.17;89.05
71805;BME280;59654;52.216;5.616;2023-06-22T00:35:56;101720.16;;;16.12;89.81
71805;BME280;59654;52.216;5.616;2023-06-22T00:36:26;101722.13;;;16.09;90.18
71805;BME280;59654;52.216;5.616;2023-06-22T00:36:59;101714.31;;;16.03;90.08
71805;BME280;59654;52.216;5.616;2023-06-22T00:37:30;101719.06;;;15.98;89.89
71805;BME280;59654;52.216;5.616;2023-06-22T00:38:01;101717.59;;;15.91;90.47
71805;BME280;59654;52.216;5.616;2023-06-22T00:38:32;101714.31;;;15.84;90.59
71805;BME280;59654;52.216;5.616;2023-06-22T00:39:03;101721.72;;;15.79;90.45
71805;BME280;59654;52.216;5.616;2023-06-22T00:39:34;101723.69;;;15.75;90.90
71805;BME280;59654;52.216;5.616;2023-06-22T00:40:06;101717.63;;;15.70;91.04
71805;BME280;59654;52.216;5.616;2023-06-22T00:40:41;101715.06;;;15.67;90.83
71805;BME280;59654;52.216;5.616;2023-06-22T00:41:12;101713.38;;;15.66;91.37
71805;BME280;59654;52.216;5.616;2023-06-22T00:41:44;101721.50;;;15.65;91.15
71805;BME280;59654;52.216;5.616;2023-06-22T00:42:14;101715.25;;;15.64;91.44
71805;BME280;59654;52.216;5.616;2023-06-22T00:42:45;101711.69;;;15.64;91.28
71805;BME280;59654;52.216;5.616;2023-06-22T00:43:16;101711.63;;;15.65;91.49
71805;BME280;59654;52.216;5.616;2023-06-22T00:43:46;101714.25;;;15.67;91.01
71805;BME280;59654;52.216;5.616;2023-06-22T00:44:17;101707.97;;;15.66;91.37
71805;BME280;59654;52.216;5.616;2023-06-22T00:44:50;101711.53;;;15.67;91.31
71805;BME280;59654;52.216;5.616;2023-06-22T00:45:22;101711.44;;;15.68;91.44
71805;BME280;59654;52.216;5.616;2023-06-22T00:45:55;101716.69;;;15.71;90.86
71805;BME280;59654;52.216;5.616;2023-06-22T00:46:27;101709.50;;;15.72;91.43
71805;BME280;59654;52.216;5.616;2023-06-22T00:46:59;101722.06;;;15.71;90.83
71805;BME280;59654;52.216;5.616;2023-06-22T00:47:34;101715.75;;;15.72;90.85
71805;BME280;59654;52.216;5.616;2023-06-22T00:48:07;101712.13;;;15.73;91.08
71805;BME280;59654;52.216;5.616;2023-06-22T00:48:39;101715.81;;;15.71;91.13
71805;BME280;59654;52.216;5.616;2023-06-22T00:49:12;101719.44;;;15.70;91.26
71805;BME280;59654;52.216;5.616;2023-06-22T00:49:44;101724.00;;;15.68;91.31
71805;BME280;59654;52.216;5.616;2023-06-22T00:50:20;101714.38;;;15.64;91.36
71805;BME280;59654;52.216;5.616;2023-06-22T00:51:02;101710.06;;;15.60;91.62
71805;BME280;59654;52.216;5.616;2023-06-22T00:51:33;101711.91;;;15.58;91.75
71805;BME280;59654;52.216;5.616;2023-06-22T00:52:05;101706.66;;;15.54;92.16
71805;BME280;59654;52.216;5.616;2023-06-22T00:52:40;101713.94;;;15.52;92.02
71805;BME280;59654;52.216;5.616;2023-06-22T00:53:14;101713.06;;;15.52;91.86
71805;BME280;59654;52.216;5.616;2023-06-22T00:53:47;101711.31;;;15.51;92.06
71805;BME280;59654;52.216;5.616;2023-06-22T00:54:19;101710.53;;;15.49;91.79
71805;BME280;59654;52.216;5.616;2023-06-22T00:55:02;101706.09;;;15.48;92.34
71805;BME280;59654;52.216;5.616;2023-06-22T00:55:37;101717.78;;;15.47;92.26
71805;BME280;59654;52.216;5.616;2023-06-22T00:56:10;101710.72;;;15.44;91.78
71805;BME280;59654;52.216;5.616;2023-06-22T00:56:42;101706.34;;;15.42;92.78
71805;BME280;59654;52.216;5.616;2023-06-22T00:57:14;101716.28;;;15.40;91.95
71805;BME280;59654;52.216;5.616;2023-06-22T00:57:49;101716.44;;;15.37;92.19
71805;BME280;59654;52.216;5.616;2023-06-22T00:58:28;101717.53;;;15.33;92.89
71805;BME280;59654;52.216;5.616;2023-06-22T00:59:00;101709.53;;;15.31;92.56
71805;BME280;59654;52.216;5.616;2023-06-22T00:59:34;101710.53;;;15.29;92.65
71805;BME280;59654;52.216;5.616;2023-06-22T01:00:07;101710.59;;;15.27;92.40
71805;BME280;59654;52.216;5.616;2023-06-22T01:00:42;101714.09;;;15.29;92.43
71805;BME280;59654;52.216;5.616;2023-06-22T01:01:13;101708.66;;;15.31;92.58
71805;BME280;59654;52.216;5.616;2023-06-22T01:01:45;101718.41;;;15.33;92.44
71805;BME280;59654;52.216;5.616;2023-06-22T01:02:15;101713.91;;;15.34;92.13
71805;BME280;59654;52.216;5.616;2023-06-22T01:02:48;101715.63;;;15.35;92.26
71805;BME280;59654;52.216;5.616;2023-06-22T01:03:22;101715.47;;;15.38;92.46
71805;BME280;59654;52.216;5.616;2023-06-22T01:03:59;101721.66;;;15.40;92.23
71805;BME280;59654;52.216;5.616;2023-06-22T01:04:38;101717.97;;;15.42;91.89
71805;BME280;59654;52.216;5.616;2023-06-22T01:05:14;101719.66;;;15.45;91.75
71805;BME280;59654;52.216;5.616;2023-06-22T01:05:46;101716.84;;;15.48;92.00
71805;BME280;59654;52.216;5.616;2023-06-22T01:06:28;101714.00;;;15.51;92.07
71805;BME280;59654;52.216;5.616;2023-06-22T01:08:51;101716.69;;;15.51;90.95
71805;BME280;59654;52.216;5.616;2023-06-22T01:09:32;101714.00;;;15.51;91.11
71805;BME280;59654;52.216;5.616;2023-06-22T01:10:18;101711.41;;;15.49;91.32
71805;BME280;59654;52.216;5.616;2023-06-22T01:11:20;101713.06;;;15.52;91.14
71805;BME280;59654;52.216;5.616;2023-06-22T01:12:02;101706.72;;;15.53;91.52
71805;BME280;59654;52.216;5.616;2023-06-22T01:12:48;101708.47;;;15.54;90.48
71805;BME280;59654;52.216;5.616;2023-06-22T01:13:32;101708.53;;;15.52;90.82
71805;BME280;59654;52.216;5.616;2023-06-22T01:15:08;101713.63;;;15.60;89.78
71805;BME280;59654;52.216;5.616;2023-06-22T01:16:55;101711.75;;;15.62;89.40
71805;BME280;59654;52.216;5.616;2023-06-22T01:17:28;101720.63;;;15.64;89.11
71805;BME280;59654;52.216;5.616;2023-06-22T01:18:04;101717.94;;;15.64;88.65
71805;BME280;59654;52.216;5.616;2023-06-22T01:18:42;101719.75;;;15.64;88.35
71805;BME280;59654;52.216;5.616;2023-06-22T01:19:35;101712.56;;;15.64;88.11
71805;BME280;59654;52.216;5.616;2023-06-22T01:20:09;101717.13;;;15.62;88.57
71805;BME280;59654;52.216;5.616;2023-06-22T01:20:42;101720.75;;;15.61;88.01
71805;BME280;59654;52.216;5.616;2023-06-22T01:21:16;101724.38;;;15.60;88.20
71805;BME280;59654;52.216;5.616;2023-06-22T01:21:53;101727.06;;;15.60;87.78
71805;BME280;59654;52.216;5.616;2023-06-22T01:22:30;101725.34;;;15.58;87.84
71805;BME280;59654;52.216;5.616;2023-06-22T01:24:23;101722.88;;;15.53;89.02
71805;BME280;59654;52.216;5.616;2023-06-22T01:25:51;101721.34;;;15.47;89.61
71805;BME280;59654;52.216;5.616;2023-06-22T01:28:46;101712.72;;;15.19;90.57
71805;BME280;59654;52.216;5.616;2023-06-22T01:29:24;101717.44;;;15.14;90.42
71805;BME280;59654;52.216;5.616;2023-06-22T01:30:00;101722.13;;;15.09;91.18
71805;BME280;59654;52.216;5.616;2023-06-22T01:30:33;101715.09;;;15.06;91.81
71805;BME280;59654;52.216;5.616;2023-06-22T01:31:06;101708.97;;;15.03;91.41
71805;BME280;59654;52.216;5.616;2023-06-22T01:31:42;101712.63;;;15.02;92.11
71805;BME280;59654;52.216;5.616;2023-06-22T01:32:18;101718.81;;;15.02;91.52
71805;BME280;59654;52.216;5.616;2023-06-22T01:32:50;101709.94;;;15.02;91.75
71805;BME280;59654;52.216;5.616;2023-06-22T01:33:23;101711.75;;;15.01;91.78
71805;BME280;59654;52.216;5.616;2023-06-22T01:33:59;101707.25;;;15.02;91.47
71805;BME280;59654;52.216;5.616;2023-06-22T01:34:33;101710.78;;;15.02;91.99
71805;BME280;59654;52.216;5.616;2023-06-22T01:35:08;101714.28;;;15.04;91.92
71805;BME280;59654;52.216;5.616;2023-06-22T01:35:41;101712.41;;;15.06;91.09
71805;BME280;59654;52.216;5.616;2023-06-22T01:36:14;101709.66;;;15.08;89.89
71805;BME280;59654;52.216;5.616;2023-06-22T01:36:52;101712.28;;;15.09;90.67
71805;BME280;59654;52.216;5.616;2023-06-22T01:37:24;101706.84;;;15.11;90.67
71805;BME280;59654;52.216;5.616;2023-06-22T01:38:02;101714.81;;;15.12;89.90
71805;BME280;59654;52.216;5.616;2023-06-22T01:38:34;101718.31;;;15.14;89.93
71805;BME280;59654;52.216;5.616;2023-06-22T01:39:08;101707.59;;;15.14;89.74
71805;BME280;59654;52.216;5.616;2023-06-22T01:39:40;101713.81;;;15.15;89.79
71805;BME280;59654;52.216;5.616;2023-06-22T01:40:13;101713.81;;;15.15;90.23
71805;BME280;59654;52.216;5.616;2023-06-22T01:40:46;101703.97;;;15.15;89.68
71805;BME280;59654;52.216;5.616;2023-06-22T01:41:19;101706.66;;;15.15;89.59
71805;BME280;59654;52.216;5.616;2023-06-22T01:41:53;101716.44;;;15.16;90.12
71805;BME280;59654;52.216;5.616;2023-06-22T01:42:26;101711.06;;;15.16;90.02
71805;BME280;59654;52.216;5.616;2023-06-22T01:43:00;101715.56;;;15.16;89.49
71805;BME280;59654;52.216;5.616;2023-06-22T01:43:35;101711.06;;;15.16;89.83
71805;BME280;59654;52.216;5.616;2023-06-22T01:44:08;101703.97;;;15.15;89.93
71805;BME280;59654;52.216;5.616;2023-06-22T01:44:42;101704.91;;;15.14;89.92
71805;BME280;59654;52.216;5.616;2023-06-22T01:45:14;101707.59;;;15.14;89.91
71805;BME280;59654;52.216;5.616;2023-06-22T01:45:58;101700.53;;;15.12;89.54
71805;BME280;59654;52.216;5.616;2023-06-22T01:46:31;101704.09;;;15.12;90.43
71805;BME280;59654;52.216;5.616;2023-06-22T01:47:03;101702.34;;;15.11;90.65
71805;BME280;59654;52.216;5.616;2023-06-22T01:47:34;101713.03;;;15.13;90.16
71805;BME280;59654;52.216;5.616;2023-06-22T01:48:08;101694.28;;;15.11;90.03
71805;BME280;59654;52.216;5.616;2023-06-22T01:48:40;101703.22;;;15.12;89.99
71805;BME280;59654;52.216;5.616;2023-06-22T01:49:13;101700.59;;;15.10;90.57
71805;BME280;59654;52.216;5.616;2023-06-22T01:49:45;101707.84;;;15.08;90.55
71805;BME280;59654;52.216;5.616;2023-06-22T01:50:17;101702.47;;;15.08;90.49
71805;BME280;59654;52.216;5.616;2023-06-22T01:50:48;101699.91;;;15.05;90.05
71805;BME280;59654;52.216;5.616;2023-06-22T01:51:19;101707.97;;;15.05;90.99
71805;BME280;59654;52.216;5.616;2023-06-22T01:51:50;101703.53;;;15.04;90.72
71805;BME280;59654;52.216;5.616;2023-06-22T01:52:21;101699.97;;;15.04;91.04
71805;BME280;59654;52.216;5.616;2023-06-22T01:52:51;101694.59;;;15.04;90.46
71805;BME280;59654;52.216;5.616;2023-06-22T01:53:24;101701.72;;;15.05;90.95
71805;BME280;59654;52.216;5.616;2023-06-22T01:54:06;101704.47;;;15.03;90.16
71805;BME280;59654;52.216;5.616;2023-06-22T01:54:39;101701.78;;;15.03;90.44
71805;BME280;59654;52.216;5.616;2023-06-22T01:55:10;101703.53;;;15.04;91.07
71805;BME280;59654;52.216;5.616;2023-06-22T01:55:51;101700.91;;;15.03;90.09
71805;BME280;59654;52.216;5.616;2023-06-22T01:56:22;101694.47;;;15.07;90.32
71805;BME280;59654;52.216;5.616;2023-06-22T01:56:53;101690.91;;;15.06;90.14
71805;BME280;59654;52.216;5.616;2023-06-22T01:57:30;101701.72;;;15.05;90.66
71805;BME280;59654;52.216;5.616;2023-06-22T01:58:01;101706.22;;;15.04;90.46
71805;BME280;59654;52.216;5.616;2023-06-22T01:58:33;101706.22;;;15.04;90.50
71805;BME280;59654;52.216;5.616;2023-06-22T02:00:01;101703.59;;;15.03;90.57
71805;BME280;59654;52.216;5.616;2023-06-22T02:00:50;101702.13;;;14.96;90.00
71805;BME280;59654;52.216;5.616;2023-06-22T02:01:44;101702.38;;;14.90;91.21
71805;BME280;59654;52.216;5.616;2023-06-22T02:02:31;101706.22;;;14.84;91.20
71805;BME280;59654;52.216;5.616;2023-06-22T02:03:34;101706.41;;;14.79;91.37
71805;BME280;59654;52.216;5.616;2023-06-22T02:04:13;101699.41;;;14.75;91.62
71805;BME280;59654;52.216;5.616;2023-06-22T02:04:58;101694.09;;;14.74;91.73
71805;BME280;59654;52.216;5.616;2023-06-22T02:05:38;101698.53;;;14.75;91.23
71805;BME280;59654;52.216;5.616;2023-06-22T02:06:27;101700.28;;;14.76;92.06
71805;BME280;59654;52.216;5.616;2023-06-22T02:07:12;101692.22;;;14.76;91.80
71805;BME280;59654;52.216;5.616;2023-06-22T02:08:05;101692.16;;;14.77;91.77
71805;BME280;59654;52.216;5.616;2023-06-22T02:08:49;101687.59;;;14.79;91.28
71805;BME280;59654;52.216;5.616;2023-06-22T02:09:28;101688.47;;;14.80;91.78
71805;BME280;59654;52.216;5.616;2023-06-22T02:10:02;101695.53;;;14.82;91.14
71805;BME280;59654;52.216;5.616;2023-06-22T02:10:37;101698.22;;;14.82;92.10
71805;BME280;59654;52.216;5.616;2023-06-22T02:11:13;101692.84;;;14.82;90.88
71805;BME280;59654;52.216;5.616;2023-06-22T02:11:47;101689.28;;;14.82;91.67
71805;BME280;59654;52.216;5.616;2023-06-22T02:12:23;101691.16;;;14.80;91.92
71805;BME280;59654;52.216;5.616;2023-06-22T02:12:59;101686.91;;;14.74;90.71
71805;BME280;59654;52.216;5.616;2023-06-22T02:13:30;101695.16;;;14.70;91.34
71805;BME280;59654;52.216;5.616;2023-06-22T02:14:04;101690.88;;;14.66;92.04
71805;BME280;59654;52.216;5.616;2023-06-22T02:14:37;101688.34;;;14.61;92.15
71805;BME280;59654;52.216;5.616;2023-06-22T02:15:11;101692.06;;;14.57;92.24
71805;BME280;59654;52.216;5.616;2023-06-22T02:15:43;101688.63;;;14.54;92.61
71805;BME280;59654;52.216;5.616;2023-06-22T02:16:17;101687.97;;;14.48;91.94
71805;BME280;59654;52.216;5.616;2023-06-22T02:16:55;101688.97;;;14.46;92.34
71805;BME280;59654;52.216;5.616;2023-06-22T02:17:29;101690.78;;;14.45;93.30
71805;BME280;59654;52.216;5.616;2023-06-22T02:18:05;101686.28;;;14.46;92.38
71805;BME280;59654;52.216;5.616;2023-06-22T02:18:36;101694.28;;;14.47;92.52
71805;BME280;59654;52.216;5.616;2023-06-22T02:19:07;101693.34;;;14.48;92.65
71805;BME280;59654;52.216;5.616;2023-06-22T02:19:41;101694.16;;;14.51;91.69
71805;BME280;59654;52.216;5.616;2023-06-22T02:20:18;101691.25;;;14.55;91.71
71805;BME280;59654;52.216;5.616;2023-06-22T02:20:49;101687.59;;;14.58;91.37
71805;BME280;59654;52.216;5.616;2023-06-22T02:21:20;101688.47;;;14.58;90.67
71805;BME280;59654;52.216;5.616;2023-06-22T02:21:51;101696.44;;;14.60;90.78
71805;BME280;59654;52.216;5.616;2023-06-22T02:22:26;101698.19;;;14.61;90.71
71805;BME280;59654;52.216;5.616;2023-06-22T02:22:57;101696.38;;;14.61;89.98
71805;BME280;59654;52.216;5.616;2023-06-22T02:23:29;101696.38;;;14.61;89.94
71805;BME280;59654;52.216;5.616;2023-06-22T02:24:00;101695.50;;;14.61;90.77
71805;BME280;59654;52.216;5.616;2023-06-22T02:24:33;101700.88;;;14.61;90.67
71805;BME280;59654;52.216;5.616;2023-06-22T02:25:04;101694.59;;;14.62;90.18
71805;BME280;59654;52.216;5.616;2023-06-22T02:25:36;101696.31;;;14.63;90.53
71805;BME280;59654;52.216;5.616;2023-06-22T02:26:07;101692.78;;;14.62;91.45
71805;BME280;59654;52.216;5.616;2023-06-22T02:26:38;101695.50;;;14.61;90.98
71805;BME280;59654;52.216;5.616;2023-06-22T02:27:12;101691.09;;;14.60;91.25
71805;BME280;59654;52.216;5.616;2023-06-22T02:27:49;101692.03;;;14.59;91.12
71805;BME280;59654;52.216;5.616;2023-06-22T02:28:21;101685.78;;;14.58;92.32
71805;BME280;59654;52.216;5.616;2023-06-22T02:28:52;101681.41;;;14.56;91.54
71805;BME280;59654;52.216;5.616;2023-06-22T02:29:22;101687.78;;;14.53;92.11
71805;BME280;59654;52.216;5.616;2023-06-22T02:29:55;101690.53;;;14.52;92.65
71805;BME280;59654;52.216;5.616;2023-06-22T02:30:27;101685.22;;;14.50;91.45
71805;BME280;59654;52.216;5.616;2023-06-22T02:30:57;101680.81;;;14.49;92.23
71805;BME280;59654;52.216;5.616;2023-06-22T02:31:29;101683.53;;;14.47;92.01
71805;BME280;59654;52.216;5.616;2023-06-22T02:32:00;101688.03;;;14.47;91.68
71805;BME280;59654;52.216;5.616;2023-06-22T02:32:31;101682.59;;;14.48;92.88
71805;BME280;59654;52.216;5.616;2023-06-22T02:33:05;101683.47;;;14.49;92.72
71805;BME280;59654;52.216;5.616;2023-06-22T02:33:36;101687.91;;;14.50;93.02
71805;BME280;59654;52.216;5.616;2023-06-22T02:34:07;101680.75;;;14.51;92.19
71805;BME280;59654;52.216;5.616;2023-06-22T02:34:39;101688.63;;;14.54;91.73
71805;BME280;59654;52.216;5.616;2023-06-22T02:35:10;101683.22;;;14.55;91.55
71805;BME280;59654;52.216;5.616;2023-06-22T02:35:41;101687.66;;;14.56;91.17
71805;BME280;59654;52.216;5.616;2023-06-22T02:36:15;101688.47;;;14.58;90.99
71805;BME280;59654;52.216;5.616;2023-06-22T02:36:47;101683.91;;;14.60;90.36
71805;BME280;59654;52.216;5.616;2023-06-22T02:37:21;101688.34;;;14.61;91.02
71805;BME280;59654;52.216;5.616;2023-06-22T02:38:03;101682.97;;;14.61;89.99
71805;BME280;59654;52.216;5.616;2023-06-22T02:38:35;101691.03;;;14.61;90.35
71805;BME280;59654;52.216;5.616;2023-06-22T02:39:06;101691.03;;;14.61;90.34
71805;BME280;59654;52.216;5.616;2023-06-22T02:39:37;101689.28;;;14.60;90.05
71805;BME280;59654;52.216;5.616;2023-06-22T02:40:08;101689.28;;;14.60;90.87
71805;BME280;59654;52.216;5.616;2023-06-22T02:40:40;101689.34;;;14.59;91.45
71805;BME280;59654;52.216;5.616;2023-06-22T02:41:11;101688.47;;;14.58;91.58
71805;BME280;59654;52.216;5.616;2023-06-22T02:41:43;101688.47;;;14.58;91.40
71805;BME280;59654;52.216;5.616;2023-06-22T02:42:15;101686.72;;;14.57;90.79
71805;BME280;59654;52.216;5.616;2023-06-22T02:42:50;101686.66;;;14.59;91.89
71805;BME280;59654;52.216;5.616;2023-06-22T02:43:21;101684.84;;;14.59;91.44
71805;BME280;59654;52.216;5.616;2023-06-22T02:43:52;101682.16;;;14.59;91.73
71805;BME280;59654;52.216;5.616;2023-06-22T02:44:23;101681.28;;;14.59;91.41
71805;BME280;59654;52.216;5.616;2023-06-22T02:44:54;101684.03;;;14.57;91.54
71805;BME280;59654;52.216;5.616;2023-06-22T02:45:27;101685.13;;;14.53;91.24
71805;BME280;59654;52.216;5.616;2023-06-22T02:45:58;101683.44;;;14.51;92.05
71805;BME280;59654;52.216;5.616;2023-06-22T02:46:29;101680.88;;;14.47;91.00
71805;BME280;59654;52.216;5.616;2023-06-22T02:47:01;101683.66;;;14.44;91.79
71805;BME280;59654;52.216;5.616;2023-06-22T02:47:31;101687.34;;;14.42;92.22
71805;BME280;59654;52.216;5.616;2023-06-22T02:48:02;101684.00;;;14.37;91.75
71805;BME280;59654;52.216;5.616;2023-06-22T02:48:35;101684.06;;;14.35;92.20
71805;BME280;59654;52.216;5.616;2023-06-22T02:49:06;101687.66;;;14.34;92.38
71805;BME280;59654;52.216;5.616;2023-06-22T02:49:37;101682.31;;;14.34;92.12
71805;BME280;59654;52.216;5.616;2023-06-22T02:50:15;101679.63;;;14.34;92.67
71805;BME280;59654;52.216;5.616;2023-06-22T02:50:46;101677.75;;;14.36;92.47
71805;BME280;59654;52.216;5.616;2023-06-22T02:51:16;101681.22;;;14.38;93.21
71805;BME280;59654;52.216;5.616;2023-06-22T02:51:48;101683.84;;;14.40;92.26
71805;BME280;59654;52.216;5.616;2023-06-22T02:52:22;101674.84;;;14.41;92.10
71805;BME280;59654;52.216;5.616;2023-06-22T02:52:52;101677.47;;;14.42;91.72
71805;BME280;59654;52.216;5.616;2023-06-22T02:53:23;101681.91;;;14.43;92.08
71805;BME280;59654;52.216;5.616;2023-06-22T02:53:54;101672.94;;;14.44;91.70
71805;BME280;59654;52.216;5.616;2023-06-22T02:54:28;101678.13;;;14.49;91.50
71805;BME280;59654;52.216;5.616;2023-06-22T02:54:59;101670.94;;;14.49;91.27
71805;BME280;59654;52.216;5.616;2023-06-22T02:55:30;101676.25;;;14.51;91.14
71805;BME280;59654;52.216;5.616;2023-06-22T02:56:03;101681.56;;;14.53;91.03
71805;BME280;59654;52.216;5.616;2023-06-22T02:56:41;101688.63;;;14.54;90.77
71805;BME280;59654;52.216;5.616;2023-06-22T02:57:15;101685.03;;;14.55;91.05
71805;BME280;59654;52.216;5.616;2023-06-22T02:57:47;101674.38;;;14.53;90.71
71805;BME280;59654;52.216;5.616;2023-06-22T02:58:18;101680.59;;;14.54;91.13
71805;BME280;59654;52.216;5.616;2023-06-22T02:58:49;101679.66;;;14.55;90.82
71805;BME280;59654;52.216;5.616;2023-06-22T02:59:20;101676.97;;;14.55;91.26
71805;BME280;59654;52.216;5.616;2023-06-22T02:59:56;101680.47;;;14.57;91.34
71805;BME280;59654;52.216;5.616;2023-06-22T03:00:28;101675.97;;;14.57;91.64
71805;BME280;59654;52.216;5.616;2023-06-22T03:01:01;101680.41;;;14.58;91.33
71805;BME280;59654;52.216;5.616;2023-06-22T03:01:37;101679.47;;;14.59;91.86
71805;BME280;59654;52.216;5.616;2023-06-22T03:02:14;101681.22;;;14.60;91.39
71805;BME280;59654;52.216;5.616;2023-06-22T03:02:47;101684.78;;;14.61;91.78
71805;BME280;59654;52.216;5.616;2023-06-22T03:03:19;101680.22;;;14.63;92.17
71805;BME280;59654;52.216;5.616;2023-06-22T03:03:50;101683.84;;;14.62;91.12
71805;BME280;59654;52.216;5.616;2023-06-22T03:04:22;101681.09;;;14.63;91.86
71805;BME280;59654;52.216;5.616;2023-06-22T03:04:58;101680.22;;;14.63;91.33
71805;BME280;59654;52.216;5.616;2023-06-22T03:05:31;101672.16;;;14.63;91.78
71805;BME280;59654;52.216;5.616;2023-06-22T03:06:06;101676.63;;;14.64;90.95